Asan, Guam
Current Conditions -  °F | °C
As of 8:54 PM on Friday 28 Nov 2014 (Local Time) from PGUM Reporting Station
Broken Clouds Broken Clouds  
Wind Chill: 82°   Ceiling: 7500
Heat Index: 88°   Visibility: 10mi
Dew Point: 74°   Wind: 15mph
Humidity: 76%   Direction: 50°NE
Pressure: 29.88"   Gusts: NA
Location:  13.47°N, 144.71°E
Report Text: PGUM 281054Z 05013KT 10SM FEW060 BKN075 BKN090 28/23 A2988 RMK AO2 SLP109 T02780233
Loading
Personal Weather Stations






























Interactive Weather Map New forecast layout! Learn more

10-Day Weather Forecast

Advertisements
Track Severe Weather on mobile